createdAt,value
2022-10-17T00:08:49.575Z,13.00
2022-10-17T00:19:11.203Z,13.00
2022-10-17T00:29:34.086Z,13.00
2022-10-17T00:39:55.772Z,12.80
2022-10-17T00:50:19.478Z,12.70
2022-10-17T01:00:42.100Z,13.00
2022-10-17T01:11:14.519Z,13.20
2022-10-17T01:21:42.398Z,13.00
2022-10-17T01:32:10.324Z,13.10
2022-10-17T01:42:36.757Z,13.00
2022-10-17T01:53:04.136Z,12.90
2022-10-17T02:03:29.264Z,12.90
2022-10-17T02:14:14.405Z,12.80
2022-10-17T02:24:44.766Z,12.90
2022-10-17T02:35:15.110Z,12.80
2022-10-17T02:45:38.809Z,13.00
2022-10-17T02:56:07.142Z,13.20
2022-10-17T03:06:28.990Z,13.40
2022-10-17T03:16:51.800Z,13.50
2022-10-17T03:27:13.945Z,13.60
2022-10-17T03:37:36.794Z,13.70
2022-10-17T03:47:59.678Z,13.60
2022-10-17T03:58:22.988Z,13.70
2022-10-17T04:08:45.488Z,13.70
2022-10-17T04:19:14.062Z,13.70
2022-10-17T04:29:39.678Z,13.60
2022-10-17T04:40:11.723Z,13.50
2022-10-17T04:50:33.544Z,13.40
2022-10-17T05:01:14.755Z,13.30
2022-10-17T05:11:37.338Z,13.20
2022-10-17T05:22:00.849Z,13.10
2022-10-17T05:32:23.728Z,13.10
2022-10-17T05:42:50.194Z,13.10
2022-10-17T05:53:13.366Z,13.20
2022-10-17T06:03:41.718Z,13.50
2022-10-17T06:14:05.248Z,13.80
2022-10-17T06:24:28.176Z,14.30
2022-10-17T06:35:00.736Z,14.50
2022-10-17T06:45:24.720Z,14.70
2022-10-17T06:56:19.596Z,14.90
2022-10-17T07:07:10.456Z,15.10
2022-10-17T07:17:36.319Z,15.70
2022-10-17T07:28:19.171Z,15.70
2022-10-17T07:38:42.101Z,16.10
2022-10-17T07:49:06.371Z,16.70
2022-10-17T07:59:28.682Z,17.40
2022-10-17T08:09:52.766Z,17.90
2022-10-17T08:20:14.919Z,18.50
2022-10-17T08:30:38.832Z,19.30
2022-10-17T08:41:02.986Z,19.70
2022-10-17T08:51:33.174Z,20.50
2022-10-17T09:01:59.727Z,21.10
2022-10-17T09:12:30.169Z,21.60
2022-10-17T09:22:58.033Z,21.80
2022-10-17T09:33:42.195Z,22.00
2022-10-17T09:44:21.612Z,22.70
2022-10-17T09:54:47.275Z,23.00
2022-10-17T10:05:17.958Z,23.70
2022-10-17T10:15:42.643Z,24.20
2022-10-17T10:26:12.473Z,24.20
2022-10-17T10:36:48.401Z,24.10
2022-10-17T10:47:18.026Z,24.80
2022-10-17T10:57:41.303Z,25.50
2022-10-17T11:08:11.563Z,25.70
2022-10-17T11:18:47.784Z,25.50
2022-10-17T11:29:12.397Z,25.50
2022-10-17T11:39:48.520Z,25.50
2022-10-17T12:01:15.113Z,26.00
2022-10-17T12:11:46.399Z,25.70
2022-10-17T12:22:20.738Z,26.50
2022-10-17T12:33:07.581Z,26.40
2022-10-17T12:54:16.042Z,26.30
2022-10-17T13:04:39.417Z,26.10
2022-10-17T13:15:04.670Z,26.50
2022-10-17T13:25:28.572Z,26.30
2022-10-17T13:36:05.705Z,25.90
2022-10-17T13:46:38.032Z,26.40
2022-10-17T13:57:00.998Z,26.10
2022-10-17T14:07:29.281Z,25.90
2022-10-17T14:17:57.514Z,26.10
2022-10-17T14:28:23.771Z,26.10
2022-10-17T14:38:50.998Z,26.40
2022-10-17T14:49:24.538Z,26.00
2022-10-17T14:59:55.387Z,25.30
2022-10-17T15:10:26.721Z,25.20
2022-10-17T15:20:52.674Z,24.50
2022-10-17T15:31:24.675Z,24.20
2022-10-17T15:41:48.028Z,23.70
2022-10-17T15:52:11.147Z,23.00
2022-10-17T16:02:33.392Z,22.60
2022-10-17T16:12:56.222Z,22.10
2022-10-17T16:23:17.685Z,21.70
2022-10-17T16:33:40.398Z,21.10
2022-10-17T16:44:06.907Z,20.80
2022-10-17T16:54:30.170Z,20.40
2022-10-17T17:04:51.376Z,20.70
2022-10-17T17:15:14.052Z,20.40
2022-10-17T17:25:35.827Z,20.10
2022-10-17T17:36:01.910Z,19.90
2022-10-17T17:46:24.973Z,19.60
2022-10-17T17:56:47.949Z,19.80
2022-10-17T18:07:09.190Z,19.40
2022-10-17T18:17:32.313Z,18.80
2022-10-17T18:27:53.603Z,18.40
2022-10-17T18:38:16.544Z,17.90
2022-10-17T18:48:40.967Z,17.30
2022-10-17T18:59:03.546Z,17.20
2022-10-17T19:09:24.732Z,17.60
2022-10-17T19:19:50.032Z,17.20
2022-10-17T19:30:12.700Z,16.60
2022-10-17T19:40:35.445Z,16.60
2022-10-17T19:50:57.078Z,17.10
2022-10-17T20:01:23.231Z,17.20
2022-10-17T20:11:44.814Z,17.00
2022-10-17T20:22:07.365Z,17.00
2022-10-17T20:32:29.005Z,16.60
2022-10-17T20:42:52.127Z,16.50
2022-10-17T21:04:06.208Z,15.50
2022-10-17T21:14:37.621Z,15.30
2022-10-17T21:25:00.270Z,15.10
2022-10-17T21:35:21.449Z,15.10
2022-10-17T21:45:44.060Z,14.90
2022-10-17T21:56:08.537Z,14.70
2022-10-17T22:06:39.836Z,14.50
2022-10-17T22:17:02.497Z,14.90
2022-10-17T22:27:25.576Z,14.60
2022-10-17T22:37:46.913Z,14.70
2022-10-17T22:48:09.610Z,14.90
2022-10-17T22:58:32.974Z,14.60
2022-10-17T23:08:56.083Z,14.30
2022-10-17T23:19:17.559Z,14.30
2022-10-17T23:29:40.235Z,14.40
2022-10-17T23:40:01.685Z,14.60
2022-10-17T23:50:24.775Z,14.50
